sensor_id;sensor_type;location;lat;lon;timestamp;temperature;humidity
18712;DHT22;9485;49.386;8.674;2023-05-07T00:03:34;18.30;56.80
18712;DHT22;9485;49.386;8.674;2023-05-07T00:08:55;18.30;56.80
18712;DHT22;9485;49.386;8.674;2023-05-07T00:14:18;18.30;56.90
18712;DHT22;9485;49.386;8.674;2023-05-07T00:19:39;18.40;57.20
18712;DHT22;9485;49.386;8.674;2023-05-07T00:24:59;18.30;57.10
18712;DHT22;9485;49.386;8.674;2023-05-07T00:30:21;18.30;57.20
18712;DHT22;9485;49.386;8.674;2023-05-07T00:35:42;18.40;57.30
18712;DHT22;9485;49.386;8.674;2023-05-07T00:41:03;18.30;57.20
18712;DHT22;9485;49.386;8.674;2023-05-07T00:46:25;18.30;57.10
18712;DHT22;9485;49.386;8.674;2023-05-07T00:51:47;18.30;57.40
18712;DHT22;9485;49.386;8.674;2023-05-07T00:57:09;18.30;57.40
18712;DHT22;9485;49.386;8.674;2023-05-07T01:02:32;18.30;57.50
18712;DHT22;9485;49.386;8.674;2023-05-07T01:07:53;18.20;57.50
18712;DHT22;9485;49.386;8.674;2023-05-07T01:13:15;18.20;57.50
18712;DHT22;9485;49.386;8.674;2023-05-07T01:18:37;18.20;57.50
18712;DHT22;9485;49.386;8.674;2023-05-07T01:24:00;18.20;57.70
18712;DHT22;9485;49.386;8.674;2023-05-07T01:29:23;18.10;57.70
18712;DHT22;9485;49.386;8.674;2023-05-07T01:34:45;18.10;57.50
18712;DHT22;9485;49.386;8.674;2023-05-07T01:40:10;18.10;57.30
18712;DHT22;9485;49.386;8.674;2023-05-07T01:45:32;18.30;57.20
18712;DHT22;9485;49.386;8.674;2023-05-07T01:50:55;18.60;57.10
18712;DHT22;9485;49.386;8.674;2023-05-07T01:56:17;18.90;56.90
18712;DHT22;9485;49.386;8.674;2023-05-07T02:01:40;19.20;56.30
18712;DHT22;9485;49.386;8.674;2023-05-07T02:07:00;19.40;55.90
18712;DHT22;9485;49.386;8.674;2023-05-07T02:12:23;19.60;55.60
18712;DHT22;9485;49.386;8.674;2023-05-07T02:17:58;19.80;55.30
18712;DHT22;9485;49.386;8.674;2023-05-07T02:23:20;20.00;54.80
18712;DHT22;9485;49.386;8.674;2023-05-07T02:28:42;20.10;54.70
18712;DHT22;9485;49.386;8.674;2023-05-07T02:34:03;20.20;54.60
18712;DHT22;9485;49.386;8.674;2023-05-07T02:39:24;20.30;54.60
18712;DHT22;9485;49.386;8.674;2023-05-07T02:44:46;20.20;54.50
18712;DHT22;9485;49.386;8.674;2023-05-07T02:50:07;20.00;54.60
18712;DHT22;9485;49.386;8.674;2023-05-07T02:55:28;19.90;54.50
18712;DHT22;9485;49.386;8.674;2023-05-07T03:00:50;19.70;54.60
18712;DHT22;9485;49.386;8.674;2023-05-07T03:06:23;19.50;54.80
18712;DHT22;9485;49.386;8.674;2023-05-07T03:11:44;19.30;55.00
18712;DHT22;9485;49.386;8.674;2023-05-07T03:17:05;19.10;55.10
18712;DHT22;9485;49.386;8.674;2023-05-07T03:22:26;18.90;55.40
18712;DHT22;9485;49.386;8.674;2023-05-07T03:27:46;18.70;56.10
18712;DHT22;9485;49.386;8.674;2023-05-07T03:33:11;18.60;55.70
18712;DHT22;9485;49.386;8.674;2023-05-07T03:38:32;18.50;56.10
18712;DHT22;9485;49.386;8.674;2023-05-07T03:43:53;18.40;56.00
18712;DHT22;9485;49.386;8.674;2023-05-07T03:49:15;18.30;56.90
18712;DHT22;9485;49.386;8.674;2023-05-07T03:54:36;18.10;56.50
18712;DHT22;9485;49.386;8.674;2023-05-07T03:59:57;18.00;56.70
18712;DHT22;9485;49.386;8.674;2023-05-07T04:05:20;17.90;57.00
18712;DHT22;9485;49.386;8.674;2023-05-07T04:10:43;17.80;57.30
18712;DHT22;9485;49.386;8.674;2023-05-07T04:16:06;17.70;57.50
18712;DHT22;9485;49.386;8.674;2023-05-07T04:21:30;17.50;57.70
18712;DHT22;9485;49.386;8.674;2023-05-07T04:26:51;17.50;58.10
18712;DHT22;9485;49.386;8.674;2023-05-07T04:32:13;17.40;58.20
18712;DHT22;9485;49.386;8.674;2023-05-07T04:37:35;17.30;58.30
18712;DHT22;9485;49.386;8.674;2023-05-07T04:42:57;17.30;58.70
18712;DHT22;9485;49.386;8.674;2023-05-07T04:48:18;17.30;58.70
18712;DHT22;9485;49.386;8.674;2023-05-07T04:53:42;17.30;58.90
18712;DHT22;9485;49.386;8.674;2023-05-07T04:59:03;17.30;59.20
18712;DHT22;9485;49.386;8.674;2023-05-07T05:04:25;17.30;59.30
18712;DHT22;9485;49.386;8.674;2023-05-07T05:09:48;17.40;59.60
18712;DHT22;9485;49.386;8.674;2023-05-07T05:15:11;17.50;59.80
18712;DHT22;9485;49.386;8.674;2023-05-07T05:20:32;17.50;60.00
18712;DHT22;9485;49.386;8.674;2023-05-07T05:25:57;17.60;59.70
18712;DHT22;9485;49.386;8.674;2023-05-07T05:31:22;17.80;60.10
18712;DHT22;9485;49.386;8.674;2023-05-07T05:36:44;17.90;59.90
18712;DHT22;9485;49.386;8.674;2023-05-07T05:42:09;18.00;59.80
18712;DHT22;9485;49.386;8.674;2023-05-07T05:47:30;18.20;60.10
18712;DHT22;9485;49.386;8.674;2023-05-07T05:52:51;18.20;59.90
18712;DHT22;9485;49.386;8.674;2023-05-07T05:58:14;18.30;60.00
18712;DHT22;9485;49.386;8.674;2023-05-07T06:03:41;18.40;60.00
18712;DHT22;9485;49.386;8.674;2023-05-07T06:09:07;18.60;60.50
18712;DHT22;9485;49.386;8.674;2023-05-07T06:14:34;18.70;60.40
18712;DHT22;9485;49.386;8.674;2023-05-07T06:19:55;18.90;60.50
18712;DHT22;9485;49.386;8.674;2023-05-07T06:25:16;19.00;60.00
18712;DHT22;9485;49.386;8.674;2023-05-07T06:30:39;19.20;60.30
18712;DHT22;9485;49.386;8.674;2023-05-07T06:35:59;19.40;60.60
18712;DHT22;9485;49.386;8.674;2023-05-07T06:41:20;19.50;60.50
18712;DHT22;9485;49.386;8.674;2023-05-07T06:46:42;19.60;60.50
18712;DHT22;9485;49.386;8.674;2023-05-07T06:52:04;19.70;60.90
18712;DHT22;9485;49.386;8.674;2023-05-07T06:57:24;19.80;61.00
18712;DHT22;9485;49.386;8.674;2023-05-07T07:02:46;20.00;61.10
18712;DHT22;9485;49.386;8.674;2023-05-07T07:08:09;20.20;61.20
18712;DHT22;9485;49.386;8.674;2023-05-07T07:13:30;20.60;60.70
18712;DHT22;9485;49.386;8.674;2023-05-07T07:18:53;20.80;60.60
18712;DHT22;9485;49.386;8.674;2023-05-07T07:24:13;21.00;60.20
18712;DHT22;9485;49.386;8.674;2023-05-07T07:29:38;21.20;60.60
18712;DHT22;9485;49.386;8.674;2023-05-07T07:35:00;21.70;61.20
18712;DHT22;9485;49.386;8.674;2023-05-07T07:40:21;22.60;61.20
18712;DHT22;9485;49.386;8.674;2023-05-07T07:45:42;23.40;60.30
18712;DHT22;9485;49.386;8.674;2023-05-07T07:51:05;23.90;58.20
18712;DHT22;9485;49.386;8.674;2023-05-07T07:56:25;24.20;57.70
18712;DHT22;9485;49.386;8.674;2023-05-07T08:01:46;24.30;57.00
18712;DHT22;9485;49.386;8.674;2023-05-07T08:07:11;24.40;57.50
18712;DHT22;9485;49.386;8.674;2023-05-07T08:12:36;24.80;57.00
18712;DHT22;9485;49.386;8.674;2023-05-07T08:17:57;25.00;56.20
18712;DHT22;9485;49.386;8.674;2023-05-07T08:23:26;25.00;55.80
18712;DHT22;9485;49.386;8.674;2023-05-07T08:28:48;25.00;55.60
18712;DHT22;9485;49.386;8.674;2023-05-07T08:34:09;25.30;56.40
18712;DHT22;9485;49.386;8.674;2023-05-07T08:39:34;26.10;56.50
18712;DHT22;9485;49.386;8.674;2023-05-07T08:44:57;27.20;55.70
18712;DHT22;9485;49.386;8.674;2023-05-07T08:50:22;28.20;54.30
18712;DHT22;9485;49.386;8.674;2023-05-07T08:55:46;28.90;53.40
18712;DHT22;9485;49.386;8.674;2023-05-07T09:01:09;29.40;51.80
18712;DHT22;9485;49.386;8.674;2023-05-07T09:06:34;29.80;51.10
18712;DHT22;9485;49.386;8.674;2023-05-07T09:11:59;30.20;51.10
18712;DHT22;9485;49.386;8.674;2023-05-07T09:17:24;30.90;50.30
18712;DHT22;9485;49.386;8.674;2023-05-07T09:22:45;31.70;49.90
18712;DHT22;9485;49.386;8.674;2023-05-07T09:28:12;32.50;48.30
18712;DHT22;9485;49.386;8.674;2023-05-07T09:33:34;32.90;46.50
18712;DHT22;9485;49.386;8.674;2023-05-07T09:38:59;32.80;46.10
18712;DHT22;9485;49.386;8.674;2023-05-07T09:44:22;32.60;45.50
18712;DHT22;9485;49.386;8.674;2023-05-07T09:49:47;32.20;45.20
18712;DHT22;9485;49.386;8.674;2023-05-07T09:55:13;31.80;45.50
18712;DHT22;9485;49.386;8.674;2023-05-07T10:00:37;31.40;45.50
18712;DHT22;9485;49.386;8.674;2023-05-07T10:06:08;31.10;45.70
18712;DHT22;9485;49.386;8.674;2023-05-07T10:11:32;31.10;46.60
18712;DHT22;9485;49.386;8.674;2023-05-07T10:16:57;31.60;46.40
18712;DHT22;9485;49.386;8.674;2023-05-07T10:22:19;32.10;45.50
18712;DHT22;9485;49.386;8.674;2023-05-07T10:27:43;32.70;45.30
18712;DHT22;9485;49.386;8.674;2023-05-07T10:33:09;33.10;45.10
18712;DHT22;9485;49.386;8.674;2023-05-07T10:38:35;33.40;42.70
18712;DHT22;9485;49.386;8.674;2023-05-07T10:43:56;33.50;43.60
18712;DHT22;9485;49.386;8.674;2023-05-07T10:49:24;33.60;43.40
18712;DHT22;9485;49.386;8.674;2023-05-07T10:55:20;33.70;41.50
18712;DHT22;9485;49.386;8.674;2023-05-07T11:00:56;33.60;39.60
18712;DHT22;9485;49.386;8.674;2023-05-07T11:06:37;33.40;40.10
18712;DHT22;9485;49.386;8.674;2023-05-07T11:12:02;33.00;39.10
18712;DHT22;9485;49.386;8.674;2023-05-07T11:17:34;32.40;39.60
18712;DHT22;9485;49.386;8.674;2023-05-07T11:29:46;31.40;38.80
18712;DHT22;9485;49.386;8.674;2023-05-07T11:35:08;31.40;39.70
18712;DHT22;9485;49.386;8.674;2023-05-07T11:40:30;31.50;40.70
18712;DHT22;9485;49.386;8.674;2023-05-07T11:45:52;31.70;40.90
18712;DHT22;9485;49.386;8.674;2023-05-07T11:51:12;32.00;40.60
18712;DHT22;9485;49.386;8.674;2023-05-07T11:56:34;32.20;40.90
18712;DHT22;9485;49.386;8.674;2023-05-07T12:01:57;32.40;40.90
18712;DHT22;9485;49.386;8.674;2023-05-07T12:07:19;32.50;40.70
18712;DHT22;9485;49.386;8.674;2023-05-07T12:12:40;32.50;40.30
18712;DHT22;9485;49.386;8.674;2023-05-07T12:18:02;32.60;39.20
18712;DHT22;9485;49.386;8.674;2023-05-07T12:23:23;32.50;39.50
18712;DHT22;9485;49.386;8.674;2023-05-07T12:28:44;32.50;39.60
18712;DHT22;9485;49.386;8.674;2023-05-07T12:34:06;32.60;39.60
18712;DHT22;9485;49.386;8.674;2023-05-07T12:39:26;32.60;39.20
18712;DHT22;9485;49.386;8.674;2023-05-07T12:44:47;32.60;39.20
18712;DHT22;9485;49.386;8.674;2023-05-07T12:50:09;32.50;38.80
18712;DHT22;9485;49.386;8.674;2023-05-07T12:55:30;32.30;38.70
18712;DHT22;9485;49.386;8.674;2023-05-07T13:00:52;32.20;38.80
18712;DHT22;9485;49.386;8.674;2023-05-07T13:06:14;31.90;38.80
18712;DHT22;9485;49.386;8.674;2023-05-07T13:11:37;31.70;39.70
18712;DHT22;9485;49.386;8.674;2023-05-07T13:16:58;31.60;40.30
18712;DHT22;9485;49.386;8.674;2023-05-07T13:22:20;31.70;39.70
18712;DHT22;9485;49.386;8.674;2023-05-07T13:27:40;31.60;39.60
18712;DHT22;9485;49.386;8.674;2023-05-07T13:33:01;31.30;39.40
18712;DHT22;9485;49.386;8.674;2023-05-07T13:38:25;31.00;39.40
18712;DHT22;9485;49.386;8.674;2023-05-07T13:43:45;30.70;39.40
18712;DHT22;9485;49.386;8.674;2023-05-07T13:49:06;30.30;39.70
18712;DHT22;9485;49.386;8.674;2023-05-07T13:54:28;30.00;40.00
18712;DHT22;9485;49.386;8.674;2023-05-07T13:59:49;29.80;41.00
18712;DHT22;9485;49.386;8.674;2023-05-07T14:05:11;29.60;40.90
18712;DHT22;9485;49.386;8.674;2023-05-07T14:10:33;29.40;40.90
18712;DHT22;9485;49.386;8.674;2023-05-07T14:15:54;29.00;41.00
18712;DHT22;9485;49.386;8.674;2023-05-07T14:21:15;28.70;41.10
18712;DHT22;9485;49.386;8.674;2023-05-07T14:26:38;28.20;41.30
18712;DHT22;9485;49.386;8.674;2023-05-07T14:31:59;27.70;41.90
18712;DHT22;9485;49.386;8.674;2023-05-07T14:37:19;27.00;42.10
18712;DHT22;9485;49.386;8.674;2023-05-07T14:42:41;26.30;42.80
18712;DHT22;9485;49.386;8.674;2023-05-07T14:48:03;25.70;44.50
18712;DHT22;9485;49.386;8.674;2023-05-07T14:53:24;25.00;46.00
18712;DHT22;9485;49.386;8.674;2023-05-07T14:58:47;24.30;47.60
18712;DHT22;9485;49.386;8.674;2023-05-07T15:04:08;23.50;49.30
18712;DHT22;9485;49.386;8.674;2023-05-07T15:09:29;22.70;50.30
18712;DHT22;9485;49.386;8.674;2023-05-07T15:14:51;22.20;52.00
18712;DHT22;9485;49.386;8.674;2023-05-07T15:20:13;21.60;54.20
18712;DHT22;9485;49.386;8.674;2023-05-07T15:25:34;21.20;55.50
18712;DHT22;9485;49.386;8.674;2023-05-07T15:30:56;20.80;57.10
18712;DHT22;9485;49.386;8.674;2023-05-07T15:36:17;20.40;59.00
18712;DHT22;9485;49.386;8.674;2023-05-07T15:41:38;20.10;60.90
18712;DHT22;9485;49.386;8.674;2023-05-07T15:47:01;19.90;62.80
18712;DHT22;9485;49.386;8.674;2023-05-07T15:52:22;19.80;65.30
18712;DHT22;9485;49.386;8.674;2023-05-07T15:57:43;19.60;66.80
18712;DHT22;9485;49.386;8.674;2023-05-07T16:03:05;19.50;69.10
18712;DHT22;9485;49.386;8.674;2023-05-07T16:08:27;19.50;70.20
18712;DHT22;9485;49.386;8.674;2023-05-07T16:13:49;19.40;70.90
18712;DHT22;9485;49.386;8.674;2023-05-07T16:19:12;19.40;71.80
18712;DHT22;9485;49.386;8.674;2023-05-07T16:24:32;19.30;72.70
18712;DHT22;9485;49.386;8.674;2023-05-07T16:29:53;19.30;73.40
18712;DHT22;9485;49.386;8.674;2023-05-07T16:35:15;19.20;75.00
18712;DHT22;9485;49.386;8.674;2023-05-07T16:40:37;19.10;75.30
18712;DHT22;9485;49.386;8.674;2023-05-07T16:45:58;19.10;76.10
18712;DHT22;9485;49.386;8.674;2023-05-07T16:51:21;19.10;76.90
18712;DHT22;9485;49.386;8.674;2023-05-07T16:56:44;19.00;77.90
18712;DHT22;9485;49.386;8.674;2023-05-07T17:02:07;19.00;78.60
18712;DHT22;9485;49.386;8.674;2023-05-07T17:07:29;19.10;79.30
18712;DHT22;9485;49.386;8.674;2023-05-07T17:12:50;19.10;79.90
18712;DHT22;9485;49.386;8.674;2023-05-07T17:18:11;19.10;80.30
18712;DHT22;9485;49.386;8.674;2023-05-07T17:23:33;19.00;80.80
18712;DHT22;9485;49.386;8.674;2023-05-07T17:28:54;19.00;81.80
18712;DHT22;9485;49.386;8.674;2023-05-07T17:34:15;19.00;82.10
18712;DHT22;9485;49.386;8.674;2023-05-07T17:39:38;19.10;82.80
18712;DHT22;9485;49.386;8.674;2023-05-07T17:44:59;19.10;83.30
18712;DHT22;9485;49.386;8.674;2023-05-07T17:50:20;19.10;83.40
18712;DHT22;9485;49.386;8.674;2023-05-07T17:55:42;19.00;83.70
18712;DHT22;9485;49.386;8.674;2023-05-07T18:01:04;19.00;84.30
18712;DHT22;9485;49.386;8.674;2023-05-07T18:06:25;18.90;84.70
18712;DHT22;9485;49.386;8.674;2023-05-07T18:11:47;18.90;85.10
18712;DHT22;9485;49.386;8.674;2023-05-07T18:17:08;18.90;85.60
18712;DHT22;9485;49.386;8.674;2023-05-07T18:22:29;18.90;86.10
18712;DHT22;9485;49.386;8.674;2023-05-07T18:27:51;18.90;86.50
18712;DHT22;9485;49.386;8.674;2023-05-07T18:33:12;18.80;86.90
18712;DHT22;9485;49.386;8.674;2023-05-07T18:38:33;18.80;87.10
18712;DHT22;9485;49.386;8.674;2023-05-07T18:43:56;18.70;87.00
18712;DHT22;9485;49.386;8.674;2023-05-07T18:49:17;18.60;87.20
18712;DHT22;9485;49.386;8.674;2023-05-07T18:54:37;18.60;87.80
18712;DHT22;9485;49.386;8.674;2023-05-07T19:00:00;18.60;88.40
18712;DHT22;9485;49.386;8.674;2023-05-07T19:05:21;18.60;89.00
18712;DHT22;9485;49.386;8.674;2023-05-07T19:10:43;18.60;89.20
18712;DHT22;9485;49.386;8.674;2023-05-07T19:16:05;18.50;89.40
18712;DHT22;9485;49.386;8.674;2023-05-07T19:21:28;18.50;89.80
18712;DHT22;9485;49.386;8.674;2023-05-07T19:26:48;18.50;90.00
18712;DHT22;9485;49.386;8.674;2023-05-07T19:32:10;18.50;90.10
18712;DHT22;9485;49.386;8.674;2023-05-07T19:37:31;18.40;90.30
18712;DHT22;9485;49.386;8.674;2023-05-07T19:42:52;18.40;90.40
18712;DHT22;9485;49.386;8.674;2023-05-07T19:48:14;18.40;90.60
18712;DHT22;9485;49.386;8.674;2023-05-07T19:53:34;18.40;90.80
18712;DHT22;9485;49.386;8.674;2023-05-07T19:58:55;18.50;90.90
18712;DHT22;9485;49.386;8.674;2023-05-07T20:04:17;18.50;91.00
18712;DHT22;9485;49.386;8.674;2023-05-07T20:09:39;18.50;91.20
18712;DHT22;9485;49.386;8.674;2023-05-07T20:15:00;18.50;91.30
18712;DHT22;9485;49.386;8.674;2023-05-07T20:20:22;18.50;91.30
18712;DHT22;9485;49.386;8.674;2023-05-07T20:25:43;18.50;91.50
18712;DHT22;9485;49.386;8.674;2023-05-07T20:31:04;18.50;91.60
18712;DHT22;9485;49.386;8.674;2023-05-07T20:36:25;18.50;91.60
18712;DHT22;9485;49.386;8.674;2023-05-07T20:41:46;18.60;91.70
18712;DHT22;9485;49.386;8.674;2023-05-07T20:47:07;18.60;91.80
18712;DHT22;9485;49.386;8.674;2023-05-07T20:52:29;18.60;91.80
18712;DHT22;9485;49.386;8.674;2023-05-07T20:57:50;18.50;91.80
18712;DHT22;9485;49.386;8.674;2023-05-07T21:03:10;18.50;91.80
18712;DHT22;9485;49.386;8.674;2023-05-07T21:08:32;18.50;91.90
18712;DHT22;9485;49.386;8.674;2023-05-07T21:13:53;18.40;92.00
18712;DHT22;9485;49.386;8.674;2023-05-07T21:19:13;18.40;92.10
18712;DHT22;9485;49.386;8.674;2023-05-07T21:24:35;18.40;92.20
18712;DHT22;9485;49.386;8.674;2023-05-07T21:29:56;18.40;92.30
18712;DHT22;9485;49.386;8.674;2023-05-07T21:35:22;18.40;92.30
18712;DHT22;9485;49.386;8.674;2023-05-07T21:40:44;18.40;92.40
18712;DHT22;9485;49.386;8.674;2023-05-07T21:46:05;18.40;92.50
18712;DHT22;9485;49.386;8.674;2023-05-07T21:51:26;18.30;92.40
18712;DHT22;9485;49.386;8.674;2023-05-07T21:56:49;18.30;92.50
18712;DHT22;9485;49.386;8.674;2023-05-07T22:02:09;18.30;92.80
18712;DHT22;9485;49.386;8.674;2023-05-07T22:07:30;18.30;92.60
18712;DHT22;9485;49.386;8.674;2023-05-07T22:12:52;18.30;92.80
18712;DHT22;9485;49.386;8.674;2023-05-07T22:18:12;18.20;92.80
18712;DHT22;9485;49.386;8.674;2023-05-07T22:23:33;18.20;92.80
18712;DHT22;9485;49.386;8.674;2023-05-07T22:28:54;18.20;92.90
18712;DHT22;9485;49.386;8.674;2023-05-07T22:34:15;18.20;93.00
18712;DHT22;9485;49.386;8.674;2023-05-07T22:39:35;18.20;93.10
18712;DHT22;9485;49.386;8.674;2023-05-07T22:44:57;18.20;93.10
18712;DHT22;9485;49.386;8.674;2023-05-07T22:50:18;18.20;93.20
18712;DHT22;9485;49.386;8.674;2023-05-07T22:55:38;18.20;93.20
18712;DHT22;9485;49.386;8.674;2023-05-07T23:01:01;18.20;93.20
18712;DHT22;9485;49.386;8.674;2023-05-07T23:06:47;18.20;93.20
18712;DHT22;9485;49.386;8.674;2023-05-07T23:12:08;18.20;93.10
18712;DHT22;9485;49.386;8.674;2023-05-07T23:17:30;18.20;93.00
18712;DHT22;9485;49.386;8.674;2023-05-07T23:22:52;18.10;92.80
18712;DHT22;9485;49.386;8.674;2023-05-07T23:28:13;18.00;92.90
18712;DHT22;9485;49.386;8.674;2023-05-07T23:33:35;18.00;93.00
18712;DHT22;9485;49.386;8.674;2023-05-07T23:38:56;18.00;93.50
18712;DHT22;9485;49.386;8.674;2023-05-07T23:44:17;18.00;93.30
18712;DHT22;9485;49.386;8.674;2023-05-07T23:49:39;18.00;93.40
18712;DHT22;9485;49.386;8.674;2023-05-07T23:55:00;18.00;93.50
